Weather observations for the past three days for
Bremerton, Bremerton National Airport
Metric (Imperial)
Date Time (pdt) Wind (kph) Vis. (km) Weather Sky Cond. Temperature (ºC) Relative Humidity Wind Chill (°C) Heat Index (°C) Pressure Precipitation (cm)
Air Dwpt 6 hour altimeter (cm) sea level (mb) 1 hr 3 hr 6 hr
Max. Min.
04 18:56 SW 17 16.09 Fair CLR 20.6 12.8 61% 75.77 1010.3
04 17:56 SW 17 16.09 Fair CLR 22.2 12.8 55% 75.77 1010.4
04 16:56 SW 15 16.09 Fair CLR 23.3 12.2 24.4 19.4 50% 75.77 1010.3
04 15:56 W 13 16.09 Fair CLR 23.9 13.3 52% 25 75.79 1010.5
04 14:56 W 11 16.09 Fair CLR 23.3 12.8 52% 75.82 1011.1
04 13:56 SW 13 16.09 Fair CLR 22.8 12.8 53% 75.84 1011.4
04 12:56 Vrbl 9 16.09 Fair CLR 21.1 12.8 59% 75.84 1011.5
04 11:56 SW 15 16.09 Fair CLR 20.6 13.3 63% 75.87 1011.8
04 10:56 W 7 16.09 Fair CLR 19.4 12.8 19.4 8.3 66% 75.9 1012.0
04 09:56 SW 11 16.09 Fair CLR 18.3 11.7 66% 75.87 1011.5
04 08:56 SW 9 16.09 Fair CLR 16.1 11.1 72% 75.84 1011.4
04 07:56 SW 9 16.09 Fair CLR 15 11.1 78% 75.82 1010.9
04 06:56 SW 9 16.09 Fair CLR 10.6 8.9 89% 75.79 1010.6
04 05:56 Calm 16.09 Fair CLR 10 8.3 89% 75.77 1010.1
04 04:56 Calm 16.09 Fair CLR 9.4 6.7 15.6 8.3 83% 75.74 1010.1
04 03:56 Calm 16.09 Fair CLR 9.4 7.2 86% 75.74 1010.0
04 02:56 Calm 16.09 Fair CLR 10 7.2 83% 75.74 1009.9
04 01:56 Calm 16.09 Fair CLR 10 7.2 83% 75.74 1010.0
04 00:56 Calm 16.09 Fair CLR 11.7 6.7 72% 75.74 1010.1
03 23:56 Calm 16.09 Fair CLR 13.3 7.2 67% 75.77 1010.1
03 22:56 Calm 16.09 Fair CLR 15 6.1 27.2 13.9 56% 75.74 1009.9
03 21:56 NE 13 16.09 Fair CLR 21.7 3.9 31% 75.72 1009.5
03 20:56 NE 13 16.09 Fair CLR 21.7 5.6 35% 75.72 1009.3
03 19:56 NE 17 16.09 Fair CLR 22.8 7.2 37% 75.72 1009.4
03 18:56 NE 15 16.09 Fair CLR 25.6 8.3 33% 26 75.72 1009.6
03 17:56 NE 17 16.09 Fair CLR 26.7 8.3 31% 26 75.77 1010.0
03 16:56 NE 13 16.09 Fair CLR 26.7 8.9 27.2 21.7 33% 26 75.79 1010.4
03 15:56 NE 17 16.09 Fair CLR 27.2 10 34% 27 75.84 1011.2
03 14:56 NE 15 16.09 Fair CLR 27.2 10.6 35% 27 75.9 1011.8
03 13:56 NE 17 16.09 Fair CLR 25.6 10.6 39% 26 75.92 1012.5
03 12:56 NE 17 16.09 Fair CLR 24.4 10.6 42% 25 75.97 1013.1
03 11:56 NE 15 16.09 Fair CLR 23.3 10.6 45% 76.02 1013.9
03 10:56 NE 15 16.09 Fair CLR 22.2 10.6 22.2 13.9 48% 76.07 1014.3
03 09:56 NE 19 16.09 Fair CLR 20 10 53% 76.07 1014.4
03 08:56 NE 13 16.09 Fair CLR 18.3 9.4 56% 76.1 1014.7
03 07:56 NE 19 16.09 Fair CLR 16.7 8.3 58% 76.07 1014.5
03 06:56 NE 7 16.09 Fair CLR 15 7.8 62% 76.07 1014.4
03 05:56 NE 13 16.09 Fair CLR 14.4 7.2 62% 76.05 1014.0
03 04:56 NE 13 16.09 Fair CLR 14.4 7.2 14.4 8.3 62% 76.07 1014.3
03 03:56 SE 6 16.09 Fair CLR 9.4 7.8 90% 76.1 1014.7
03 02:56 Calm 16.09 Fair CLR 9.4 7.8 90% 76.1 1014.8
03 01:56 Calm 16.09 Fair CLR 10 7.8 86% 76.12 1015.3
03 00:56 Calm 16.09 Fair CLR 10 8.3 89% 76.12 1015.2
02 23:56 Calm 16.09 Fair CLR 12.2 8.3 77% 76.1 1015.0
02 22:56 Calm 16.09 Fair CLR 12.2 7.8 24.4 12.2 75% 76.1 1014.8
02 21:56 E 11 16.09 Fair CLR 18.3 6.7 47% 76.07 1014.4
02 20:56 E 17 16.09 Fair CLR 20 6.7 42% 76.02 1013.7
02 19:56 NE 17 16.09 Fair CLR 21.1 6.7 39% 75.97 1013.3
02 18:56 NE 17 16.09 Fair CLR 22.8 8.3 40% 75.97 1013.3
02 17:56 NE 17 16.09 Fair CLR 23.9 9.4 40% 25 76 1013.4
02 16:56 NE 20 16.09 Fair CLR 24.4 10.6 24.4 18.3 42% 25 76 1013.5
02 15:56 NE 24 16.09 Fair CLR 23.9 10.6 43% 25 76.07 1014.3
02 14:56 NE 22 G 35 16.09 Fair CLR 23.3 10.6 45% 76.1 1015.0
02 13:56 E 15 16.09 Fair CLR 21.7 11.7 53% 76.17 1015.8
02 12:56 NE 17 16.09 Fair CLR 20.6 11.1 55% 76.2 1016.2
02 11:56 NE 15 16.09 Fair CLR 19.4 10.6 57% 76.23 1016.5
02 10:56 NE 20 16.09 Fair CLR 18.3 10.6 18.3 7.8 61% 76.25 1016.9
02 09:56 NE 17 G 28 16.09 Fair CLR 15.6 11.1 75% 76.28 1017.3
02 08:56 Vrbl 11 16.09 Fair CLR 13.3 10.6 84% 76.3 1017.5
02 07:56 NE 6 16.09 Fair CLR 10.6 10 96% 76.28 1017.3
02 06:56 Calm 11.27 Fair CLR 8.3 8.3 100% 76.28 1017.2
02 05:56 Calm 9.66 Fog/Mist FEW003 8.3 8.3 100% 76.28 1017.1
02 04:56 Calm 16.09 Partly Cloudy FEW003 SCT110 8.9 8.9 11.7 7.2 100% 76.28 1017.2
02 03:56 S 7 16.09 Partly Cloudy SCT110 8.9 8.9 100% 8 76.33 1018.0
02 02:56 SW 6 16.09 Fair CLR 7.8 7.8 100% 76.3 1017.5
02 01:56 S 7 16.09 Fair CLR 8.9 8.9 100% 8 76.3 1017.6
02 00:56 S 6 16.09 Fair CLR 10 9.4 96% 76.3 1017.6
01 23:56 SW 6 16.09 Fair CLR 10 9.4 96% 76.28 1017.2
01 22:56 SW 9 16.09 Fair CLR 11.7 10.6 23.3 11.7 93% 76.25 1016.9
01 21:56 SW 9 16.09 Mostly Cloudy BKN110 13.9 11.1 83% 76.23 1016.7
01 20:56 Calm 16.09 A Few Clouds FEW110 16.1 10.6 70% 76.2 1016.1
01 19:56 S 6 16.09 Fair CLR 17.2 10.6 65% 76.15 1015.4
Date Time (pdt) Wind (kph) Vis. (km) Weather Sky Cond. Air Dwpt Max. Min. Relative Humidity Wind Chill (°C) Heat Index (°C) altimeter (cm) sea level (mb) 1 hr 3 hr 6 hr
6 hour
Temperature (ºC) Pressure Precipitation (cm)